CheckWX is a tool to help pilots better visualize weather data.  It is not intended as a substitute for an official pre-flight weather briefing.

22:18:15 UTC

LTAP TAF
Amasya Merzifon Airport
Amasya, Turkey
TAF LTAP 201640Z 2018/2118 03008KT CAVOK BECMG 2107/2110 04018KT SCT040

Mar-20@
18:00 UTC

Mar-20 @ 18:00 UTC

Mar-21@
07:00 UTC

Mar-21 @ 07:00 UTC

TAF LTAP 201640Z 2018/2118 03008KT CAVOK
Wind
  • 030° at 8 KTS
Conditions
No significant weather
Cloud Levels
  • No significant clouds

Mar-21@
07:00 UTC

Mar-21 @ 07:00 UTC

Mar-21@
18:00 UTC

Mar-21 @ 18:00 UTC

BECMG 2107/2110 04018KT SCT040

Becoming

Becoming Conditions expected by Thu, Mar 21, 2019 @ 10:00 UTC

Wind
  • 040° at 18 KTS
Conditions
No significant weather
Cloud Levels
  • Scattered at 4,000' AGL